Terminal Aerodrome Forecast
Issued by NWS

Home | Current Version | Previous Version | Text Only | Print | Product List | Glossary On
Versions: 1 2 3 4 5 6 7 8 9 10 11 12 13 14 15 16
000
FTUS43 KAPX 250532
TAFPLN
TAF
KPLN 250532Z 2506/2606 05007KT 5SM BR OVC022
     FM251500 08013G21KT P6SM SCT025
     FM252300 09012G22KT P6SM BKN040
     FM260200 09012G23KT P6SM BKN025
     FM260400 09012G24KT P6SM OVC015=

USA.gov is the U.S. government's official web portal to all federal, state and local government web resources and services.